Albion, New York
Current Conditions -  °F | °C
As of 7:54 PM on Wednesday 17 Dec 2014 (Local Time) from KROC Reporting Station
Light Snow Light Snow  
Wind Chill: 23°   Ceiling: 1600
Heat Index: 34°   Visibility: 5mi
Dew Point: 29°   Wind: 17mph
Humidity: 82%   Direction: 270°W
Pressure: 29.94"   Gusts: 23mph
Location:  43.25°N, 78.19°W
Report Text: KROC 180054Z 27015G20KT 5SM -SN OVC016 01/M02 A2994 RMK AO2 SLP145 SNB14 P0000 T00111017
Loading
Personal Weather Stations






























Interactive Weather Map New forecast layout! Learn more

10-Day Weather Forecast

Advertisements
Track Severe Weather on mobile